sensor_id;sensor_type;location;lat;lon;timestamp;temperature;humidity
28177;DHT22;15461;41.652;9.378;2023-05-07T00:02:00;14.00;99.90
28177;DHT22;15461;41.652;9.378;2023-05-07T00:04:26;14.00;99.90
28177;DHT22;15461;41.652;9.378;2023-05-07T00:06:53;14.00;99.90
28177;DHT22;15461;41.652;9.378;2023-05-07T00:09:19;14.00;99.90
28177;DHT22;15461;41.652;9.378;2023-05-07T00:11:45;14.00;99.90
28177;DHT22;15461;41.652;9.378;2023-05-07T00:14:11;14.00;99.90
28177;DHT22;15461;41.652;9.378;2023-05-07T00:16:37;14.00;99.90
28177;DHT22;15461;41.652;9.378;2023-05-07T00:19:03;14.00;99.90
28177;DHT22;15461;41.652;9.378;2023-05-07T00:21:29;14.10;99.90
28177;DHT22;15461;41.652;9.378;2023-05-07T00:23:56;14.10;99.90
28177;DHT22;15461;41.652;9.378;2023-05-07T00:26:22;14.10;99.90
28177;DHT22;15461;41.652;9.378;2023-05-07T00:28:49;14.10;99.90
28177;DHT22;15461;41.652;9.378;2023-05-07T00:31:15;14.10;99.90
28177;DHT22;15461;41.652;9.378;2023-05-07T00:33:41;14.20;99.90
28177;DHT22;15461;41.652;9.378;2023-05-07T00:36:07;14.20;99.90
28177;DHT22;15461;41.652;9.378;2023-05-07T00:38:33;14.20;99.90
28177;DHT22;15461;41.652;9.378;2023-05-07T00:40:59;14.20;99.90
28177;DHT22;15461;41.652;9.378;2023-05-07T00:43:25;14.10;99.90
28177;DHT22;15461;41.652;9.378;2023-05-07T00:45:51;14.10;99.90
28177;DHT22;15461;41.652;9.378;2023-05-07T00:48:17;14.10;99.90
28177;DHT22;15461;41.652;9.378;2023-05-07T00:50:44;14.00;99.90
28177;DHT22;15461;41.652;9.378;2023-05-07T00:53:10;14.00;99.90
28177;DHT22;15461;41.652;9.378;2023-05-07T00:55:36;14.00;99.90
28177;DHT22;15461;41.652;9.378;2023-05-07T00:58:02;14.00;99.90
28177;DHT22;15461;41.652;9.378;2023-05-07T01:00:29;14.00;99.90
28177;DHT22;15461;41.652;9.378;2023-05-07T01:02:55;14.00;99.90
28177;DHT22;15461;41.652;9.378;2023-05-07T01:05:23;13.90;99.90
28177;DHT22;15461;41.652;9.378;2023-05-07T01:07:49;13.90;99.90
28177;DHT22;15461;41.652;9.378;2023-05-07T01:10:16;13.90;99.90
28177;DHT22;15461;41.652;9.378;2023-05-07T01:12:43;13.90;99.90
28177;DHT22;15461;41.652;9.378;2023-05-07T01:15:10;13.90;99.90
28177;DHT22;15461;41.652;9.378;2023-05-07T01:17:37;13.90;99.90
28177;DHT22;15461;41.652;9.378;2023-05-07T01:20:06;13.90;99.90
28177;DHT22;15461;41.652;9.378;2023-05-07T01:22:34;13.80;99.90
28177;DHT22;15461;41.652;9.378;2023-05-07T01:25:03;13.80;99.90
28177;DHT22;15461;41.652;9.378;2023-05-07T01:27:30;13.80;99.90
28177;DHT22;15461;41.652;9.378;2023-05-07T01:29:56;13.80;99.90
28177;DHT22;15461;41.652;9.378;2023-05-07T01:32:38;13.70;99.90
28177;DHT22;15461;41.652;9.378;2023-05-07T01:35:07;13.70;99.90
28177;DHT22;15461;41.652;9.378;2023-05-07T01:37:35;13.70;99.90
28177;DHT22;15461;41.652;9.378;2023-05-07T01:40:02;13.70;99.90
28177;DHT22;15461;41.652;9.378;2023-05-07T01:42:29;13.80;99.90
28177;DHT22;15461;41.652;9.378;2023-05-07T01:44:55;13.70;99.90
28177;DHT22;15461;41.652;9.378;2023-05-07T01:47:21;13.80;99.90
28177;DHT22;15461;41.652;9.378;2023-05-07T01:49:48;13.70;99.90
28177;DHT22;15461;41.652;9.378;2023-05-07T01:52:14;13.80;99.90
28177;DHT22;15461;41.652;9.378;2023-05-07T01:54:40;13.80;99.90
28177;DHT22;15461;41.652;9.378;2023-05-07T01:57:06;13.80;99.90
28177;DHT22;15461;41.652;9.378;2023-05-07T01:59:33;13.70;99.90
28177;DHT22;15461;41.652;9.378;2023-05-07T02:01:58;13.80;99.90
28177;DHT22;15461;41.652;9.378;2023-05-07T02:04:24;13.70;99.90
28177;DHT22;15461;41.652;9.378;2023-05-07T02:06:51;13.70;99.90
28177;DHT22;15461;41.652;9.378;2023-05-07T02:09:19;13.70;99.90
28177;DHT22;15461;41.652;9.378;2023-05-07T02:11:47;13.60;99.90
28177;DHT22;15461;41.652;9.378;2023-05-07T02:14:14;13.60;99.90
28177;DHT22;15461;41.652;9.378;2023-05-07T02:16:41;13.70;99.90
28177;DHT22;15461;41.652;9.378;2023-05-07T02:19:08;13.60;99.90
28177;DHT22;15461;41.652;9.378;2023-05-07T02:21:34;13.60;99.90
28177;DHT22;15461;41.652;9.378;2023-05-07T02:24:00;13.60;99.90
28177;DHT22;15461;41.652;9.378;2023-05-07T02:26:26;13.60;99.90
28177;DHT22;15461;41.652;9.378;2023-05-07T02:28:52;13.50;99.90
28177;DHT22;15461;41.652;9.378;2023-05-07T02:31:19;13.50;99.90
28177;DHT22;15461;41.652;9.378;2023-05-07T02:33:45;13.50;99.90
28177;DHT22;15461;41.652;9.378;2023-05-07T02:36:12;13.50;99.90
28177;DHT22;15461;41.652;9.378;2023-05-07T02:38:44;13.50;99.90
28177;DHT22;15461;41.652;9.378;2023-05-07T02:41:11;13.50;99.90
28177;DHT22;15461;41.652;9.378;2023-05-07T02:43:37;13.40;99.90
28177;DHT22;15461;41.652;9.378;2023-05-07T02:46:08;13.40;99.90
28177;DHT22;15461;41.652;9.378;2023-05-07T02:48:37;13.40;99.90
28177;DHT22;15461;41.652;9.378;2023-05-07T02:51:04;13.40;99.90
28177;DHT22;15461;41.652;9.378;2023-05-07T02:53:32;13.40;99.90
28177;DHT22;15461;41.652;9.378;2023-05-07T02:56:00;13.50;99.90
28177;DHT22;15461;41.652;9.378;2023-05-07T02:58:26;13.40;99.90
28177;DHT22;15461;41.652;9.378;2023-05-07T03:00:53;13.40;99.90
28177;DHT22;15461;41.652;9.378;2023-05-07T03:03:40;13.40;99.90
28177;DHT22;15461;41.652;9.378;2023-05-07T03:06:06;13.40;99.90
28177;DHT22;15461;41.652;9.378;2023-05-07T03:08:32;13.30;99.90
28177;DHT22;15461;41.652;9.378;2023-05-07T03:10:58;13.40;99.90
28177;DHT22;15461;41.652;9.378;2023-05-07T03:13:25;13.30;99.90
28177;DHT22;15461;41.652;9.378;2023-05-07T03:15:51;13.30;99.90
28177;DHT22;15461;41.652;9.378;2023-05-07T03:18:17;13.30;99.90
28177;DHT22;15461;41.652;9.378;2023-05-07T03:20:43;13.30;99.90
28177;DHT22;15461;41.652;9.378;2023-05-07T03:23:09;13.30;99.90
28177;DHT22;15461;41.652;9.378;2023-05-07T03:25:35;13.30;99.90
28177;DHT22;15461;41.652;9.378;2023-05-07T03:28:01;13.30;99.90
28177;DHT22;15461;41.652;9.378;2023-05-07T03:30:36;13.30;99.90
28177;DHT22;15461;41.652;9.378;2023-05-07T03:33:02;13.30;99.90
28177;DHT22;15461;41.652;9.378;2023-05-07T03:35:28;13.30;99.90
28177;DHT22;15461;41.652;9.378;2023-05-07T03:37:55;13.30;99.90
28177;DHT22;15461;41.652;9.378;2023-05-07T03:40:21;13.30;99.90
28177;DHT22;15461;41.652;9.378;2023-05-07T03:42:52;13.30;99.90
28177;DHT22;15461;41.652;9.378;2023-05-07T03:45:20;13.30;99.90
28177;DHT22;15461;41.652;9.378;2023-05-07T03:47:55;13.30;99.90
28177;DHT22;15461;41.652;9.378;2023-05-07T03:50:21;13.30;99.90
28177;DHT22;15461;41.652;9.378;2023-05-07T03:52:48;13.30;99.90
28177;DHT22;15461;41.652;9.378;2023-05-07T03:55:16;13.30;99.90
28177;DHT22;15461;41.652;9.378;2023-05-07T03:57:48;13.30;99.90
28177;DHT22;15461;41.652;9.378;2023-05-07T04:00:14;13.30;99.90
28177;DHT22;15461;41.652;9.378;2023-05-07T04:02:46;13.30;99.90
28177;DHT22;15461;41.652;9.378;2023-05-07T04:05:14;13.30;99.90
28177;DHT22;15461;41.652;9.378;2023-05-07T04:07:42;13.30;99.90
28177;DHT22;15461;41.652;9.378;2023-05-07T04:10:10;13.30;99.90
28177;DHT22;15461;41.652;9.378;2023-05-07T04:12:38;13.20;99.90
28177;DHT22;15461;41.652;9.378;2023-05-07T04:15:07;13.20;99.90
28177;DHT22;15461;41.652;9.378;2023-05-07T04:17:33;13.20;99.90
28177;DHT22;15461;41.652;9.378;2023-05-07T04:19:59;13.20;99.90
28177;DHT22;15461;41.652;9.378;2023-05-07T04:22:26;13.20;99.90
28177;DHT22;15461;41.652;9.378;2023-05-07T04:24:53;13.20;99.90
28177;DHT22;15461;41.652;9.378;2023-05-07T04:27:19;13.30;99.90
28177;DHT22;15461;41.652;9.378;2023-05-07T04:29:46;13.20;99.90
28177;DHT22;15461;41.652;9.378;2023-05-07T04:32:13;13.20;99.90
28177;DHT22;15461;41.652;9.378;2023-05-07T04:34:40;13.30;99.90
28177;DHT22;15461;41.652;9.378;2023-05-07T04:37:08;13.30;99.90
28177;DHT22;15461;41.652;9.378;2023-05-07T04:39:34;13.30;99.90
28177;DHT22;15461;41.652;9.378;2023-05-07T04:42:02;13.30;99.90
28177;DHT22;15461;41.652;9.378;2023-05-07T04:44:29;13.30;99.90
28177;DHT22;15461;41.652;9.378;2023-05-07T04:46:57;13.30;99.90
28177;DHT22;15461;41.652;9.378;2023-05-07T04:49:24;13.40;99.90
28177;DHT22;15461;41.652;9.378;2023-05-07T04:51:53;13.40;99.90
28177;DHT22;15461;41.652;9.378;2023-05-07T04:54:21;13.40;99.90
28177;DHT22;15461;41.652;9.378;2023-05-07T04:56:47;13.50;99.90
28177;DHT22;15461;41.652;9.378;2023-05-07T04:59:13;13.50;99.90
28177;DHT22;15461;41.652;9.378;2023-05-07T05:01:39;13.60;99.90
28177;DHT22;15461;41.652;9.378;2023-05-07T05:04:06;13.70;99.90
28177;DHT22;15461;41.652;9.378;2023-05-07T05:06:32;13.70;99.90
28177;DHT22;15461;41.652;9.378;2023-05-07T05:09:00;13.80;99.90
28177;DHT22;15461;41.652;9.378;2023-05-07T05:11:29;13.90;99.90
28177;DHT22;15461;41.652;9.378;2023-05-07T05:13:55;14.00;99.90
28177;DHT22;15461;41.652;9.378;2023-05-07T05:16:21;14.10;99.90
28177;DHT22;15461;41.652;9.378;2023-05-07T05:18:48;14.10;99.90
28177;DHT22;15461;41.652;9.378;2023-05-07T05:21:16;14.20;99.90
28177;DHT22;15461;41.652;9.378;2023-05-07T05:23:45;14.30;99.90
28177;DHT22;15461;41.652;9.378;2023-05-07T05:26:12;14.40;99.90
28177;DHT22;15461;41.652;9.378;2023-05-07T05:28:38;14.50;99.90
28177;DHT22;15461;41.652;9.378;2023-05-07T05:31:05;14.60;99.90
28177;DHT22;15461;41.652;9.378;2023-05-07T05:33:34;14.70;99.90
28177;DHT22;15461;41.652;9.378;2023-05-07T05:36:04;14.90;99.90
28177;DHT22;15461;41.652;9.378;2023-05-07T05:38:30;15.10;99.90
28177;DHT22;15461;41.652;9.378;2023-05-07T05:40:56;15.30;99.90
28177;DHT22;15461;41.652;9.378;2023-05-07T05:43:22;15.50;99.90
28177;DHT22;15461;41.652;9.378;2023-05-07T05:45:48;15.70;99.90
28177;DHT22;15461;41.652;9.378;2023-05-07T05:48:14;15.90;99.90
28177;DHT22;15461;41.652;9.378;2023-05-07T05:50:42;16.10;99.90
28177;DHT22;15461;41.652;9.378;2023-05-07T05:53:08;16.20;99.90
28177;DHT22;15461;41.652;9.378;2023-05-07T05:55:34;16.40;99.90
28177;DHT22;15461;41.652;9.378;2023-05-07T05:58:01;16.50;99.90
28177;DHT22;15461;41.652;9.378;2023-05-07T06:00:29;16.70;99.90
28177;DHT22;15461;41.652;9.378;2023-05-07T06:03:01;16.80;99.90
28177;DHT22;15461;41.652;9.378;2023-05-07T06:05:27;16.90;99.90
28177;DHT22;15461;41.652;9.378;2023-05-07T06:07:55;17.10;99.90
28177;DHT22;15461;41.652;9.378;2023-05-07T06:10:21;17.20;99.90
28177;DHT22;15461;41.652;9.378;2023-05-07T06:12:47;17.40;99.90
28177;DHT22;15461;41.652;9.378;2023-05-07T06:15:14;17.50;99.90
28177;DHT22;15461;41.652;9.378;2023-05-07T06:17:41;17.70;99.90
28177;DHT22;15461;41.652;9.378;2023-05-07T06:20:10;17.90;99.90
28177;DHT22;15461;41.652;9.378;2023-05-07T06:22:36;18.00;99.90
28177;DHT22;15461;41.652;9.378;2023-05-07T06:25:02;18.30;99.90
28177;DHT22;15461;41.652;9.378;2023-05-07T06:27:29;18.50;99.90
28177;DHT22;15461;41.652;9.378;2023-05-07T06:29:59;18.70;99.90
28177;DHT22;15461;41.652;9.378;2023-05-07T06:32:24;18.80;99.90
28177;DHT22;15461;41.652;9.378;2023-05-07T06:34:51;18.90;99.90
28177;DHT22;15461;41.652;9.378;2023-05-07T06:37:18;18.90;99.90
28177;DHT22;15461;41.652;9.378;2023-05-07T06:39:56;18.80;99.90
28177;DHT22;15461;41.652;9.378;2023-05-07T06:42:25;18.70;99.90
28177;DHT22;15461;41.652;9.378;2023-05-07T06:44:57;18.60;99.90
28177;DHT22;15461;41.652;9.378;2023-05-07T06:47:23;18.50;99.90
28177;DHT22;15461;41.652;9.378;2023-05-07T06:49:52;18.50;99.90
28177;DHT22;15461;41.652;9.378;2023-05-07T06:52:20;18.50;99.90
28177;DHT22;15461;41.652;9.378;2023-05-07T06:54:49;18.60;99.90
28177;DHT22;15461;41.652;9.378;2023-05-07T06:57:17;18.70;99.90
28177;DHT22;15461;41.652;9.378;2023-05-07T06:59:43;18.80;99.90
28177;DHT22;15461;41.652;9.378;2023-05-07T07:02:09;18.90;99.90
28177;DHT22;15461;41.652;9.378;2023-05-07T07:04:35;18.90;99.90
28177;DHT22;15461;41.652;9.378;2023-05-07T07:07:05;19.10;99.90
28177;DHT22;15461;41.652;9.378;2023-05-07T07:09:31;19.20;99.90
28177;DHT22;15461;41.652;9.378;2023-05-07T07:11:59;19.40;99.90
28177;DHT22;15461;41.652;9.378;2023-05-07T07:14:27;19.50;99.90
28177;DHT22;15461;41.652;9.378;2023-05-07T07:16:53;19.70;99.90
28177;DHT22;15461;41.652;9.378;2023-05-07T07:19:21;19.80;99.90
28177;DHT22;15461;41.652;9.378;2023-05-07T07:21:49;20.00;99.90
28177;DHT22;15461;41.652;9.378;2023-05-07T07:24:16;19.90;99.90
28177;DHT22;15461;41.652;9.378;2023-05-07T07:26:48;20.00;99.90
28177;DHT22;15461;41.652;9.378;2023-05-07T07:29:14;20.10;99.90
28177;DHT22;15461;41.652;9.378;2023-05-07T07:31:42;20.30;99.90
28177;DHT22;15461;41.652;9.378;2023-05-07T07:34:09;20.30;99.90
28177;DHT22;15461;41.652;9.378;2023-05-07T07:36:35;20.40;99.90
28177;DHT22;15461;41.652;9.378;2023-05-07T07:39:01;20.40;99.90
28177;DHT22;15461;41.652;9.378;2023-05-07T07:41:27;20.30;99.90
28177;DHT22;15461;41.652;9.378;2023-05-07T07:43:54;20.40;99.90
28177;DHT22;15461;41.652;9.378;2023-05-07T07:46:20;20.50;99.90
28177;DHT22;15461;41.652;9.378;2023-05-07T07:48:47;20.50;99.90
28177;DHT22;15461;41.652;9.378;2023-05-07T07:51:14;20.60;99.90
28177;DHT22;15461;41.652;9.378;2023-05-07T07:53:40;20.90;99.90
28177;DHT22;15461;41.652;9.378;2023-05-07T07:56:07;21.00;99.90
28177;DHT22;15461;41.652;9.378;2023-05-07T07:58:34;21.10;99.90
28177;DHT22;15461;41.652;9.378;2023-05-07T08:01:01;21.00;99.90
28177;DHT22;15461;41.652;9.378;2023-05-07T08:03:28;21.00;99.90
28177;DHT22;15461;41.652;9.378;2023-05-07T08:05:57;20.80;99.90
28177;DHT22;15461;41.652;9.378;2023-05-07T08:08:24;20.80;99.90
28177;DHT22;15461;41.652;9.378;2023-05-07T08:10:52;20.90;99.90
28177;DHT22;15461;41.652;9.378;2023-05-07T08:13:25;21.00;99.90
28177;DHT22;15461;41.652;9.378;2023-05-07T08:15:53;21.00;99.90
28177;DHT22;15461;41.652;9.378;2023-05-07T08:18:19;21.20;99.90
28177;DHT22;15461;41.652;9.378;2023-05-07T08:20:45;21.20;99.90
28177;DHT22;15461;41.652;9.378;2023-05-07T08:23:16;21.40;99.90
28177;DHT22;15461;41.652;9.378;2023-05-07T08:25:44;21.60;99.90
28177;DHT22;15461;41.652;9.378;2023-05-07T08:28:10;21.70;99.90
28177;DHT22;15461;41.652;9.378;2023-05-07T08:30:38;21.80;99.90
28177;DHT22;15461;41.652;9.378;2023-05-07T08:33:04;21.80;99.90
28177;DHT22;15461;41.652;9.378;2023-05-07T08:35:30;21.70;99.90
28177;DHT22;15461;41.652;9.378;2023-05-07T08:37:56;21.70;99.90
28177;DHT22;15461;41.652;9.378;2023-05-07T08:40:25;21.90;99.90
28177;DHT22;15461;41.652;9.378;2023-05-07T08:42:53;22.20;99.90
28177;DHT22;15461;41.652;9.378;2023-05-07T08:45:19;22.60;99.90
28177;DHT22;15461;41.652;9.378;2023-05-07T08:47:52;22.90;99.90
28177;DHT22;15461;41.652;9.378;2023-05-07T08:50:23;23.00;99.90
28177;DHT22;15461;41.652;9.378;2023-05-07T08:52:50;23.00;99.90
28177;DHT22;15461;41.652;9.378;2023-05-07T08:55:18;22.90;99.90
28177;DHT22;15461;41.652;9.378;2023-05-07T08:57:45;22.70;99.90
28177;DHT22;15461;41.652;9.378;2023-05-07T09:00:12;22.50;99.90
28177;DHT22;15461;41.652;9.378;2023-05-07T09:02:40;22.50;99.90
28177;DHT22;15461;41.652;9.378;2023-05-07T09:05:08;22.60;99.90
28177;DHT22;15461;41.652;9.378;2023-05-07T09:07:34;22.70;99.90
28177;DHT22;15461;41.652;9.378;2023-05-07T09:10:03;22.60;99.90
28177;DHT22;15461;41.652;9.378;2023-05-07T09:12:32;22.70;99.90
28177;DHT22;15461;41.652;9.378;2023-05-07T09:14:59;22.70;99.90
28177;DHT22;15461;41.652;9.378;2023-05-07T09:17:26;22.50;99.90
28177;DHT22;15461;41.652;9.378;2023-05-07T09:19:53;22.20;99.90
28177;DHT22;15461;41.652;9.378;2023-05-07T09:22:19;22.00;99.90
28177;DHT22;15461;41.652;9.378;2023-05-07T09:25:00;22.00;99.90
28177;DHT22;15461;41.652;9.378;2023-05-07T09:27:27;22.20;99.90
28177;DHT22;15461;41.652;9.378;2023-05-07T09:29:55;22.50;99.90
28177;DHT22;15461;41.652;9.378;2023-05-07T09:32:21;22.90;99.90
28177;DHT22;15461;41.652;9.378;2023-05-07T09:34:47;23.20;99.90
28177;DHT22;15461;41.652;9.378;2023-05-07T09:37:16;23.50;99.90
28177;DHT22;15461;41.652;9.378;2023-05-07T09:39:44;23.70;99.90
28177;DHT22;15461;41.652;9.378;2023-05-07T09:42:11;23.80;99.90
28177;DHT22;15461;41.652;9.378;2023-05-07T09:44:39;23.90;99.90
28177;DHT22;15461;41.652;9.378;2023-05-07T09:47:10;24.00;99.90
28177;DHT22;15461;41.652;9.378;2023-05-07T09:49:47;24.00;99.90
28177;DHT22;15461;41.652;9.378;2023-05-07T09:52:16;24.00;99.90
28177;DHT22;15461;41.652;9.378;2023-05-07T09:54:48;24.00;99.90
28177;DHT22;15461;41.652;9.378;2023-05-07T09:57:19;24.00;99.90
28177;DHT22;15461;41.652;9.378;2023-05-07T09:59:50;23.90;99.90
28177;DHT22;15461;41.652;9.378;2023-05-07T10:02:19;23.90;99.90
28177;DHT22;15461;41.652;9.378;2023-05-07T10:04:50;24.10;99.90
28177;DHT22;15461;41.652;9.378;2023-05-07T10:07:21;24.10;99.90
28177;DHT22;15461;41.652;9.378;2023-05-07T10:09:52;24.20;99.90
28177;DHT22;15461;41.652;9.378;2023-05-07T10:12:25;24.10;99.90
28177;DHT22;15461;41.652;9.378;2023-05-07T10:14:53;23.90;99.90
28177;DHT22;15461;41.652;9.378;2023-05-07T10:17:22;23.90;99.90
28177;DHT22;15461;41.652;9.378;2023-05-07T10:19:49;23.80;99.90
28177;DHT22;15461;41.652;9.378;2023-05-07T10:22:18;23.90;99.90
28177;DHT22;15461;41.652;9.378;2023-05-07T10:24:48;24.00;99.90
28177;DHT22;15461;41.652;9.378;2023-05-07T10:27:17;24.00;99.90
28177;DHT22;15461;41.652;9.378;2023-05-07T10:30:14;24.10;99.90
28177;DHT22;15461;41.652;9.378;2023-05-07T10:32:46;24.00;99.90
28177;DHT22;15461;41.652;9.378;2023-05-07T10:35:26;24.10;99.90
28177;DHT22;15461;41.652;9.378;2023-05-07T10:37:53;24.40;99.90
28177;DHT22;15461;41.652;9.378;2023-05-07T10:40:21;24.20;99.90
28177;DHT22;15461;41.652;9.378;2023-05-07T10:43:02;23.70;99.90
28177;DHT22;15461;41.652;9.378;2023-05-07T10:45:36;23.10;99.90
28177;DHT22;15461;41.652;9.378;2023-05-07T10:48:13;22.70;99.90
28177;DHT22;15461;41.652;9.378;2023-05-07T10:50:45;22.40;99.90
28177;DHT22;15461;41.652;9.378;2023-05-07T10:58:50;22.40;99.90
28177;DHT22;15461;41.652;9.378;2023-05-07T11:01:50;22.30;99.90
28177;DHT22;15461;41.652;9.378;2023-05-07T11:04:21;22.20;99.90
28177;DHT22;15461;41.652;9.378;2023-05-07T11:09:54;22.10;99.90
28177;DHT22;15461;41.652;9.378;2023-05-07T11:15:35;22.60;99.90
28177;DHT22;15461;41.652;9.378;2023-05-07T11:18:03;23.10;99.90
28177;DHT22;15461;41.652;9.378;2023-05-07T11:20:52;23.60;99.90
28177;DHT22;15461;41.652;9.378;2023-05-07T11:26:16;24.20;99.90
28177;DHT22;15461;41.652;9.378;2023-05-07T11:28:43;24.40;99.90
28177;DHT22;15461;41.652;9.378;2023-05-07T11:31:11;24.30;99.90
28177;DHT22;15461;41.652;9.378;2023-05-07T11:33:38;24.10;99.90
28177;DHT22;15461;41.652;9.378;2023-05-07T11:36:08;24.00;99.90
28177;DHT22;15461;41.652;9.378;2023-05-07T11:38:40;23.80;99.90
28177;DHT22;15461;41.652;9.378;2023-05-07T11:41:07;23.20;99.90
28177;DHT22;15461;41.652;9.378;2023-05-07T11:43:34;22.70;99.90
28177;DHT22;15461;41.652;9.378;2023-05-07T11:46:10;22.60;99.90
28177;DHT22;15461;41.652;9.378;2023-05-07T11:48:36;22.80;99.90
28177;DHT22;15461;41.652;9.378;2023-05-07T11:51:04;23.00;99.90
28177;DHT22;15461;41.652;9.378;2023-05-07T11:53:39;23.20;99.90
28177;DHT22;15461;41.652;9.378;2023-05-07T11:56:10;23.40;99.90
28177;DHT22;15461;41.652;9.378;2023-05-07T11:58:37;23.60;99.90
28177;DHT22;15461;41.652;9.378;2023-05-07T12:01:03;23.80;99.90
28177;DHT22;15461;41.652;9.378;2023-05-07T12:03:29;24.10;99.90
28177;DHT22;15461;41.652;9.378;2023-05-07T12:05:55;24.20;99.90
28177;DHT22;15461;41.652;9.378;2023-05-07T12:08:21;24.20;99.90
28177;DHT22;15461;41.652;9.378;2023-05-07T12:10:50;24.30;99.90
28177;DHT22;15461;41.652;9.378;2023-05-07T12:13:21;24.10;99.90
28177;DHT22;15461;41.652;9.378;2023-05-07T12:15:55;23.80;99.90
28177;DHT22;15461;41.652;9.378;2023-05-07T12:18:22;23.50;99.90
28177;DHT22;15461;41.652;9.378;2023-05-07T12:20:49;23.20;99.90
28177;DHT22;15461;41.652;9.378;2023-05-07T12:23:16;22.90;99.90
28177;DHT22;15461;41.652;9.378;2023-05-07T12:25:43;22.70;99.90
28177;DHT22;15461;41.652;9.378;2023-05-07T12:28:16;22.60;99.90
28177;DHT22;15461;41.652;9.378;2023-05-07T12:30:44;22.40;99.90
28177;DHT22;15461;41.652;9.378;2023-05-07T12:33:10;22.20;99.90
28177;DHT22;15461;41.652;9.378;2023-05-07T12:35:40;22.00;99.90
28177;DHT22;15461;41.652;9.378;2023-05-07T12:38:12;22.00;99.90
28177;DHT22;15461;41.652;9.378;2023-05-07T12:40:40;21.80;99.90
28177;DHT22;15461;41.652;9.378;2023-05-07T12:43:07;21.50;99.90
28177;DHT22;15461;41.652;9.378;2023-05-07T12:45:41;21.50;99.90
28177;DHT22;15461;41.652;9.378;2023-05-07T12:48:09;21.60;99.90
28177;DHT22;15461;41.652;9.378;2023-05-07T12:50:35;21.60;99.90
28177;DHT22;15461;41.652;9.378;2023-05-07T12:53:04;21.40;99.90
28177;DHT22;15461;41.652;9.378;2023-05-07T12:55:44;21.20;99.90
28177;DHT22;15461;41.652;9.378;2023-05-07T12:58:28;21.20;99.90
28177;DHT22;15461;41.652;9.378;2023-05-07T13:00:55;21.40;99.90
28177;DHT22;15461;41.652;9.378;2023-05-07T13:03:37;21.60;99.90
28177;DHT22;15461;41.652;9.378;2023-05-07T13:06:08;22.00;99.90
28177;DHT22;15461;41.652;9.378;2023-05-07T13:08:40;22.50;99.90
28177;DHT22;15461;41.652;9.378;2023-05-07T13:11:09;23.00;99.90
28177;DHT22;15461;41.652;9.378;2023-05-07T13:13:37;23.20;99.90
28177;DHT22;15461;41.652;9.378;2023-05-07T13:16:04;23.30;99.90
28177;DHT22;15461;41.652;9.378;2023-05-07T13:18:31;23.30;99.90
28177;DHT22;15461;41.652;9.378;2023-05-07T13:20:58;23.30;99.90
28177;DHT22;15461;41.652;9.378;2023-05-07T13:23:24;23.40;99.90
28177;DHT22;15461;41.652;9.378;2023-05-07T13:25:50;23.60;99.90
28177;DHT22;15461;41.652;9.378;2023-05-07T13:28:18;23.90;99.90
28177;DHT22;15461;41.652;9.378;2023-05-07T13:30:44;23.80;99.90
28177;DHT22;15461;41.652;9.378;2023-05-07T13:33:09;23.60;99.90
28177;DHT22;15461;41.652;9.378;2023-05-07T13:35:35;22.90;99.90
28177;DHT22;15461;41.652;9.378;2023-05-07T13:38:01;22.40;99.90
28177;DHT22;15461;41.652;9.378;2023-05-07T13:40:27;21.90;99.90
28177;DHT22;15461;41.652;9.378;2023-05-07T13:42:53;21.60;99.90
28177;DHT22;15461;41.652;9.378;2023-05-07T13:45:20;21.60;99.90
28177;DHT22;15461;41.652;9.378;2023-05-07T13:47:46;21.60;99.90
28177;DHT22;15461;41.652;9.378;2023-05-07T13:50:13;21.70;99.90
28177;DHT22;15461;41.652;9.378;2023-05-07T13:52:43;21.60;99.90
28177;DHT22;15461;41.652;9.378;2023-05-07T13:55:11;21.60;99.90
28177;DHT22;15461;41.652;9.378;2023-05-07T13:57:38;21.50;99.90
28177;DHT22;15461;41.652;9.378;2023-05-07T14:00:04;21.60;99.90
28177;DHT22;15461;41.652;9.378;2023-05-07T14:02:40;21.60;99.90
28177;DHT22;15461;41.652;9.378;2023-05-07T14:05:07;21.50;99.90
28177;DHT22;15461;41.652;9.378;2023-05-07T14:07:33;21.20;99.90
28177;DHT22;15461;41.652;9.378;2023-05-07T14:09:59;21.10;99.90
28177;DHT22;15461;41.652;9.378;2023-05-07T14:12:25;21.10;99.90
28177;DHT22;15461;41.652;9.378;2023-05-07T14:14:51;21.10;99.90
28177;DHT22;15461;41.652;9.378;2023-05-07T14:17:17;21.20;99.90
28177;DHT22;15461;41.652;9.378;2023-05-07T14:19:43;21.10;99.90
28177;DHT22;15461;41.652;9.378;2023-05-07T14:22:09;21.00;99.90
28177;DHT22;15461;41.652;9.378;2023-05-07T14:24:36;20.90;99.90
28177;DHT22;15461;41.652;9.378;2023-05-07T14:27:02;21.00;99.90
28177;DHT22;15461;41.652;9.378;2023-05-07T14:29:28;21.00;99.90
28177;DHT22;15461;41.652;9.378;2023-05-07T14:31:54;21.00;99.90
28177;DHT22;15461;41.652;9.378;2023-05-07T14:34:20;21.00;99.90
28177;DHT22;15461;41.652;9.378;2023-05-07T14:36:46;20.90;99.90
28177;DHT22;15461;41.652;9.378;2023-05-07T14:39:12;20.80;99.90
28177;DHT22;15461;41.652;9.378;2023-05-07T14:41:38;20.90;99.90
28177;DHT22;15461;41.652;9.378;2023-05-07T14:44:04;20.90;99.90
28177;DHT22;15461;41.652;9.378;2023-05-07T14:46:30;21.10;99.90
28177;DHT22;15461;41.652;9.378;2023-05-07T14:48:57;21.50;99.90
28177;DHT22;15461;41.652;9.378;2023-05-07T14:51:23;21.70;99.90
28177;DHT22;15461;41.652;9.378;2023-05-07T14:53:50;21.60;99.90
28177;DHT22;15461;41.652;9.378;2023-05-07T14:56:16;21.60;99.90
28177;DHT22;15461;41.652;9.378;2023-05-07T14:58:43;21.50;99.90
28177;DHT22;15461;41.652;9.378;2023-05-07T15:01:09;21.30;99.90
28177;DHT22;15461;41.652;9.378;2023-05-07T15:03:35;21.20;99.90
28177;DHT22;15461;41.652;9.378;2023-05-07T15:06:02;21.20;99.90
28177;DHT22;15461;41.652;9.378;2023-05-07T15:08:28;21.20;99.90
28177;DHT22;15461;41.652;9.378;2023-05-07T15:10:54;21.20;99.90
28177;DHT22;15461;41.652;9.378;2023-05-07T15:13:21;21.50;99.90
28177;DHT22;15461;41.652;9.378;2023-05-07T15:15:47;21.70;99.90
28177;DHT22;15461;41.652;9.378;2023-05-07T15:18:14;21.90;99.90
28177;DHT22;15461;41.652;9.378;2023-05-07T15:20:40;21.70;99.90
28177;DHT22;15461;41.652;9.378;2023-05-07T15:23:07;21.80;99.90
28177;DHT22;15461;41.652;9.378;2023-05-07T15:25:39;21.90;99.90
28177;DHT22;15461;41.652;9.378;2023-05-07T15:28:05;21.90;99.90
28177;DHT22;15461;41.652;9.378;2023-05-07T15:30:31;21.90;99.90
28177;DHT22;15461;41.652;9.378;2023-05-07T15:32:57;22.00;99.90
28177;DHT22;15461;41.652;9.378;2023-05-07T15:35:23;22.10;99.90
28177;DHT22;15461;41.652;9.378;2023-05-07T15:37:51;22.10;99.90
28177;DHT22;15461;41.652;9.378;2023-05-07T15:40:18;22.00;99.90
28177;DHT22;15461;41.652;9.378;2023-05-07T15:42:45;21.80;99.90
28177;DHT22;15461;41.652;9.378;2023-05-07T15:45:11;21.70;99.90
28177;DHT22;15461;41.652;9.378;2023-05-07T15:47:37;21.40;99.90
28177;DHT22;15461;41.652;9.378;2023-05-07T15:50:04;21.20;99.90